Time;durP1;ratioP1;P1;durP2;ratioP2;P2;SDS_P1;SDS_P2;PMS_P1;PMS_P2;Temp;Humidity;BMP_temperature;BMP_pressure;BME280_temperature;BME280_humidity;BME280_pressure;Samples;Min_cycle;Max_cycle;Signal;HPM_P1;HPM_P2
2023/10/05 00:01:27;;;;;;;8.40;4.20;;;;;;;10.77;85.18;101690.88;4996204;28;20667;-72
2023/10/05 00:03:54;;;;;;;7.17;3.70;;;;;;;10.72;84.89;101688.34;4997645;28;21385;-71
2023/10/05 00:06:24;;;;;;;6.47;4.27;;;;;;;10.68;84.88;101692.66;5003506;28;20334;-71
2023/10/05 00:08:52;;;;;;;8.37;4.43;;;;;;;10.67;85.16;101693.75;4996264;28;20223;-70
2023/10/05 00:11:23;;;;;;;8.87;3.93;;;;;;;10.61;84.88;101695.72;4988963;28;20208;-71
2023/10/05 00:13:50;;;;;;;6.53;3.93;;;;;;;10.61;84.88;101700.22;4992786;28;21308;-71
2023/10/05 00:16:20;;;;;;;8.37;3.97;;;;;;;10.58;85.72;101698.19;4980955;28;20235;-71
2023/10/05 00:18:49;;;;;;;6.00;3.60;;;;;;;10.54;86.27;101692.72;5002371;28;20204;-71
2023/10/05 00:21:19;;;;;;;7.10;4.07;;;;;;;10.51;86.20;101703.84;4998613;28;20699;-72
2023/10/05 00:23:50;;;;;;;6.03;3.93;;;;;;;10.48;86.81;101701.84;4991026;28;20203;-71
2023/10/05 00:26:20;;;;;;;6.37;4.10;;;;;;;10.43;86.56;101709.06;4996042;28;20206;-71
2023/10/05 00:29:04;;;;;;;7.10;3.70;;;;;;;10.39;86.56;101706.25;4999532;28;20327;-72
2023/10/05 00:31:33;;;;;;;8.83;4.40;;;;;;;10.37;87.11;101704.97;4998778;28;21695;-71
2023/10/05 00:34:02;;;;;;;7.30;3.67;;;;;;;10.33;86.94;101704.00;4994271;28;20240;-70
2023/10/05 00:36:33;;;;;;;6.50;3.83;;;;;;;10.31;87.37;101692.97;4994864;28;20814;-71
2023/10/05 00:39:02;;;;;;;8.53;3.67;;;;;;;10.27;87.25;101686.72;4981009;28;20305;-71
2023/10/05 00:41:32;;;;;;;5.73;3.13;;;;;;;10.25;86.90;101681.72;4988210;28;20602;-71
2023/10/05 00:43:59;;;;;;;12.20;4.13;;;;;;;10.23;86.76;101675.16;4994400;28;20232;-71
2023/10/05 00:46:26;;;;;;;6.87;3.50;;;;;;;10.20;86.38;101676.53;5002985;28;20249;-72
2023/10/05 00:49:00;;;;;;;12.43;4.07;;;;;;;10.18;86.38;101673.44;4994691;28;20614;-70
2023/10/05 00:51:31;;;;;;;6.20;4.17;;;;;;;10.17;86.81;101668.44;4976776;28;20218;-71
2023/10/05 00:54:05;;;;;;;9.03;4.03;;;;;;;10.14;86.64;101675.09;4993291;28;21273;-71
2023/10/05 00:56:35;;;;;;;7.07;3.73;;;;;;;10.13;86.48;101676.16;4980366;28;20239;-71
2023/10/05 00:59:06;;;;;;;7.87;3.70;;;;;;;10.12;86.93;101671.19;4997983;28;20212;-71
2023/10/05 01:01:51;;;;;;;6.40;3.63;;;;;;;10.09;85.42;101674.44;4991523;28;21821;-71
2023/10/05 01:04:23;;;;;;;6.53;3.93;;;;;;;10.10;85.93;101675.97;4999254;28;20966;-71
2023/10/05 01:06:56;;;;;;;7.23;3.77;;;;;;;10.07;86.01;101687.13;4977940;28;20591;-71
2023/10/05 01:09:40;;;;;;;11.80;4.97;;;;;;;10.06;85.76;101681.06;4996861;28;20219;-71
2023/10/05 01:12:19;;;;;;;9.73;4.07;;;;;;;10.07;86.31;101681.84;4981565;28;20590;-71
2023/10/05 01:14:51;;;;;;;13.50;3.80;;;;;;;10.07;86.57;101689.75;4976794;28;20228;-71
2023/10/05 01:17:20;;;;;;;7.23;4.00;;;;;;;10.08;86.18;101683.41;4980648;28;20216;-71
2023/10/05 01:19:50;;;;;;;10.27;4.00;;;;;;;10.08;86.23;101681.56;4999223;28;20208;-72
2023/10/05 01:22:20;;;;;;;12.10;3.97;;;;;;;10.09;86.15;101677.06;4999256;28;20231;-72
2023/10/05 01:24:48;;;;;;;9.83;3.63;;;;;;;10.08;86.11;101676.28;5000922;28;20531;-71
2023/10/05 01:27:15;;;;;;;9.67;4.10;;;;;;;10.09;85.40;101675.19;4979352;28;20216;-71
2023/10/05 01:29:42;;;;;;;7.33;3.83;;;;;;;10.09;85.80;101669.91;4985970;28;20209;-71
2023/10/05 01:32:09;;;;;;;6.83;3.80;;;;;;;10.09;86.15;101664.63;4998175;28;20218;-72
2023/10/05 01:34:36;;;;;;;12.13;4.20;;;;;;;10.11;86.83;101659.88;4999745;28;21305;-71
2023/10/05 01:37:03;;;;;;;14.30;4.10;;;;;;;10.12;86.13;101664.06;4995136;28;20276;-71
2023/10/05 01:39:32;;;;;;;5.23;3.50;;;;;;;10.14;86.05;101653.97;4986953;28;20220;-71
2023/10/05 01:42:00;;;;;;;7.03;3.80;;;;;;;10.16;86.45;101651.84;4986704;28;20232;-71
2023/10/05 01:44:27;;;;;;;9.23;4.20;;;;;;;10.18;85.96;101644.41;5001337;28;20237;-70
2023/10/05 01:46:55;;;;;;;9.53;3.70;;;;;;;10.20;86.37;101638.81;5005667;28;20282;-70
2023/10/05 01:49:25;;;;;;;9.03;3.93;;;;;;;10.24;86.14;101635.28;5004333;28;20215;-71
2023/10/05 01:51:52;;;;;;;6.47;3.50;;;;;;;10.28;85.74;101635.47;5008404;28;21335;-71
2023/10/05 01:54:19;;;;;;;10.80;4.37;;;;;;;10.29;86.25;101632.53;4997851;28;20245;-70
2023/10/05 01:56:47;;;;;;;9.30;4.17;;;;;;;10.31;85.48;101630.38;4998390;28;20231;-70
2023/10/05 01:59:20;;;;;;;6.40;3.60;;;;;;;10.34;85.39;101627.16;4987363;28;20269;-70
2023/10/05 02:01:47;;;;;;;5.80;3.60;;;;;;;10.36;85.91;101624.97;4979601;28;20206;-72
2023/10/05 02:04:15;;;;;;;9.13;4.13;;;;;;;10.38;86.11;101628.13;4993931;28;20820;-71
2023/10/05 02:06:45;;;;;;;8.00;3.93;;;;;;;10.41;85.27;101629.38;5002378;28;20907;-71
2023/10/05 02:09:14;;;;;;;6.87;3.33;;;;;;;10.43;85.10;101629.84;5000471;28;20296;-71
2023/10/05 02:11:41;;;;;;;6.67;3.67;;;;;;;10.46;85.56;101629.28;4981098;28;20213;-71
2023/10/05 02:14:12;;;;;;;7.37;3.77;;;;;;;10.48;85.18;101621.81;4982266;28;20225;-70
2023/10/05 02:16:40;;;;;;;6.17;3.90;;;;;;;10.49;85.06;101618.88;4998410;28;20213;-71
2023/10/05 02:19:08;;;;;;;8.57;3.50;;;;;;;10.51;84.75;101610.66;4983307;28;20210;-72
2023/10/05 02:21:37;;;;;;;9.13;3.80;;;;;;;10.53;85.05;101609.28;4990035;28;21306;-71
2023/10/05 02:24:10;;;;;;;6.30;3.47;;;;;;;10.56;85.54;101605.28;4986598;28;20527;-71
2023/10/05 02:26:37;;;;;;;6.83;3.47;;;;;;;10.56;85.42;101600.75;4978751;28;20213;-70
2023/10/05 02:29:13;;;;;;;5.73;3.30;;;;;;;10.60;84.75;101600.94;4979713;28;20902;-71
2023/10/05 02:31:50;;;;;;;4.40;3.20;;;;;;;10.61;84.51;101603.28;4973191;28;20212;-71
2023/10/05 02:34:19;;;;;;;8.07;3.73;;;;;;;10.64;84.95;101604.53;4994208;28;20417;-71
2023/10/05 02:36:45;;;;;;;7.70;3.40;;;;;;;10.63;84.22;101603.78;4993513;28;20218;-73
2023/10/05 02:39:12;;;;;;;12.17;3.97;;;;;;;10.66;84.10;101597.88;4980416;28;20864;-71
2023/10/05 02:41:38;;;;;;;7.70;3.43;;;;;;;10.69;84.51;101596.50;4978747;28;20823;-71
2023/10/05 02:44:16;;;;;;;6.03;3.60;;;;;;;10.72;84.52;101594.03;4992154;28;20434;-71
2023/10/05 02:46:47;;;;;;;11.10;3.20;;;;;;;10.75;84.30;101598.72;5000519;28;20201;-71
2023/10/05 02:49:15;;;;;;;5.60;3.40;;;;;;;10.79;83.98;101597.03;4991480;28;20784;-71
2023/10/05 02:51:43;;;;;;;5.83;3.20;;;;;;;10.81;84.41;101583.53;4977703;28;20207;-70
2023/10/05 02:54:10;;;;;;;7.77;3.23;;;;;;;10.82;84.11;101598.28;4980613;28;20287;-71
2023/10/05 02:56:40;;;;;;;8.87;3.40;;;;;;;10.82;83.46;101585.84;4999497;28;20219;-71
2023/10/05 02:59:09;;;;;;;9.80;3.57;;;;;;;10.84;84.19;101599.56;4991997;28;20345;-72
2023/10/05 03:01:37;;;;;;;7.03;3.53;;;;;;;10.85;83.78;101597.66;4980579;28;20206;-70
2023/10/05 03:04:16;;;;;;;7.23;3.40;;;;;;;10.85;84.27;101592.38;5001561;28;20241;-71
2023/10/05 03:06:45;;;;;;;6.73;3.77;;;;;;;10.84;85.00;101582.91;4986119;28;20306;-70
2023/10/05 03:09:11;;;;;;;8.70;3.67;;;;;;;10.84;84.21;101578.41;4989356;28;21395;-71
2023/10/05 03:11:41;;;;;;;7.63;3.50;;;;;;;10.84;83.63;101580.28;4981382;28;20212;-71
2023/10/05 03:14:10;;;;;;;6.20;3.33;;;;;;;10.82;83.62;101575.28;4984704;28;21738;-71
2023/10/05 03:16:44;;;;;;;6.73;3.40;;;;;;;10.80;84.27;101574.81;4991034;28;20913;-71
2023/10/05 03:19:16;;;;;;;4.73;3.03;;;;;;;10.80;84.62;101572.16;5000478;28;21428;-71
2023/10/05 03:21:45;;;;;;;5.10;2.53;;;;;;;10.78;84.00;101566.41;4979695;28;20207;-71
2023/10/05 03:24:13;;;;;;;6.37;3.20;;;;;;;10.78;83.97;101570.91;4987198;28;20232;-71
2023/10/05 03:26:40;;;;;;;4.27;2.73;;;;;;;10.78;83.86;101573.56;4986029;28;21363;-71
2023/10/05 03:29:07;;;;;;;5.97;2.70;;;;;;;10.77;83.64;101562.19;4997240;28;20214;-71
2023/10/05 03:31:37;;;;;;;3.80;2.70;;;;;;;10.77;84.52;101559.56;4978352;28;20278;-72
2023/10/05 03:34:06;;;;;;;6.20;2.67;;;;;;;10.76;84.73;101560.63;4977610;28;20377;-71
2023/10/05 03:36:35;;;;;;;7.30;2.93;;;;;;;10.76;84.29;101560.63;4995672;28;20222;-71
2023/10/05 03:39:06;;;;;;;5.63;2.97;;;;;;;10.77;84.83;101566.72;4977979;28;20221;-70
2023/10/05 03:41:34;;;;;;;5.10;3.03;;;;;;;10.77;84.34;101561.44;4975301;28;20230;-71
2023/10/05 03:44:01;;;;;;;5.27;3.27;;;;;;;10.76;84.44;101560.63;4977127;28;20233;-70
2023/10/05 03:46:28;;;;;;;3.63;2.50;;;;;;;10.75;84.79;101571.50;4989749;28;20225;-71
2023/10/05 03:48:59;;;;;;;4.70;2.70;;;;;;;10.73;84.95;101576.31;4995790;28;20214;-71
2023/10/05 03:51:28;;;;;;;4.43;3.20;;;;;;;10.70;84.08;101559.22;4995474;28;20216;-72
2023/10/05 03:53:56;;;;;;;3.83;2.60;;;;;;;10.69;84.54;101557.66;4975771;28;20711;-71
2023/10/05 03:56:29;;;;;;;6.03;2.90;;;;;;;10.67;84.81;101549.25;4974825;28;20346;-71
2023/10/05 03:59:00;;;;;;;5.30;2.90;;;;;;;10.66;84.83;101549.56;4978775;28;20874;-71
2023/10/05 04:01:27;;;;;;;5.03;2.63;;;;;;;10.66;85.36;101565.41;4974775;28;20253;-71
2023/10/05 04:03:54;;;;;;;4.33;2.53;;;;;;;10.65;84.71;101559.34;4985916;28;20319;-71
2023/10/05 04:06:28;;;;;;;5.87;2.40;;;;;;;10.67;85.61;101572.25;4972508;28;20206;-71
2023/10/05 04:08:57;;;;;;;5.17;2.80;;;;;;;10.68;85.00;101556.09;4971662;28;20220;-71
2023/10/05 04:11:26;;;;;;;5.97;3.10;;;;;;;10.69;84.80;101555.00;4992311;28;20211;-71
2023/10/05 04:13:53;;;;;;;4.23;2.87;;;;;;;10.71;85.04;101550.19;4993107;28;20198;-70
2023/10/05 04:16:26;;;;;;;4.13;2.80;;;;;;;10.72;85.04;101553.63;4995081;28;20203;-71
2023/10/05 04:18:53;;;;;;;5.27;2.80;;;;;;;10.72;84.64;101551.75;4994610;28;20215;-71
2023/10/05 04:21:22;;;;;;;5.13;2.77;;;;;;;10.73;84.67;101547.25;4994105;28;20213;-71
2023/10/05 04:23:49;;;;;;;4.73;3.00;;;;;;;10.73;85.45;101541.97;4991024;28;20234;-71
2023/10/05 04:26:21;;;;;;;5.47;2.57;;;;;;;10.75;85.47;101540.59;4997242;28;20249;-71
2023/10/05 04:28:57;;;;;;;3.67;3.00;;;;;;;10.76;85.32;101547.44;5000360;28;20215;-71
2023/10/05 04:31:25;;;;;;;4.77;3.13;;;;;;;10.75;84.51;101531.88;4992236;28;20402;-71
2023/10/05 04:33:51;;;;;;;6.00;3.23;;;;;;;10.76;84.65;101531.59;4994105;28;20344;-71
2023/10/05 04:36:19;;;;;;;5.70;2.87;;;;;;;10.75;86.03;101524.75;5002917;28;20327;-71
2023/10/05 04:38:46;;;;;;;6.97;3.00;;;;;;;10.77;85.05;101527.09;5001343;28;20222;-71
2023/10/05 04:41:13;;;;;;;6.93;2.97;;;;;;;10.75;85.25;101524.75;4999378;28;21816;-71
2023/10/05 04:43:41;;;;;;;5.20;2.93;;;;;;;10.78;84.23;101531.28;4995775;28;21073;-70
2023/10/05 04:46:09;;;;;;;6.30;3.47;;;;;;;10.77;84.67;101530.50;4988085;28;20600;-71
2023/10/05 04:48:36;;;;;;;4.43;2.77;;;;;;;10.77;84.19;101527.84;4987997;28;20206;-71
2023/10/05 04:51:05;;;;;;;5.77;3.03;;;;;;;10.79;84.06;101522.28;4992556;28;20203;-71
2023/10/05 04:53:32;;;;;;;6.10;3.20;;;;;;;10.79;84.42;101522.28;4986428;28;20199;-70
2023/10/05 04:56:12;;;;;;;4.90;3.07;;;;;;;10.80;84.39;101526.47;4993739;28;21350;-71
2023/10/05 04:58:53;;;;;;;5.57;3.37;;;;;;;10.80;84.21;101535.19;4988167;28;20214;-71
2023/10/05 05:01:28;;;;;;;6.13;3.27;;;;;;;10.81;84.22;101528.06;4991402;28;20223;-70
2023/10/05 05:04:12;;;;;;;5.93;2.77;;;;;;;10.79;84.31;101525.69;4995160;28;20222;-71
2023/10/05 05:06:37;;;;;;;6.83;3.53;;;;;;;10.78;84.04;101520.72;4997142;28;20247;-71
2023/10/05 05:09:11;;;;;;;7.00;3.27;;;;;;;10.77;84.88;101529.72;4999020;28;20353;-71
2023/10/05 05:11:38;;;;;;;6.07;3.33;;;;;;;10.76;84.34;101528.19;4994310;28;20220;-71
2023/10/05 05:14:06;;;;;;;5.50;3.70;;;;;;;10.75;84.66;101526.59;4995943;28;20275;-71
2023/10/05 05:16:34;;;;;;;7.23;3.20;;;;;;;10.75;84.22;101523.94;4994674;28;20216;-71
2023/10/05 05:19:00;;;;;;;7.60;3.30;;;;;;;10.76;84.62;101528.19;4994910;28;20214;-71
2023/10/05 05:21:28;;;;;;;6.90;3.37;;;;;;;10.78;84.63;101524.16;4995211;28;20224;-71
2023/10/05 05:23:54;;;;;;;7.30;3.23;;;;;;;10.83;84.46;101517.94;4995895;28;20249;-70
2023/10/05 05:26:20;;;;;;;5.13;2.77;;;;;;;10.86;84.18;101517.31;4995314;28;20218;-71
2023/10/05 05:28:49;;;;;;;6.67;3.10;;;;;;;10.90;84.37;101521.72;5001179;28;20218;-71
2023/10/05 05:31:16;;;;;;;8.47;3.30;;;;;;;10.96;84.39;101514.41;4996255;28;20668;-71
2023/10/05 05:33:44;;;;;;;6.90;3.67;;;;;;;11.01;84.72;101511.63;4990449;28;20820;-71
2023/10/05 05:36:12;;;;;;;5.93;3.10;;;;;;;11.05;84.05;101508.09;5004064;28;20901;-70
2023/10/05 05:38:39;;;;;;;5.60;2.83;;;;;;;11.12;83.49;101508.44;4999221;28;20211;-72
2023/10/05 05:41:11;;;;;;;7.10;3.43;;;;;;;11.16;83.28;101509.38;4995275;28;21237;-72
2023/10/05 05:43:39;;;;;;;5.43;3.07;;;;;;;11.20;83.52;101505.03;4996772;28;20241;-71
2023/10/05 05:46:09;;;;;;;6.53;3.50;;;;;;;11.26;83.22;101506.44;4994546;28;20215;-70
2023/10/05 05:48:36;;;;;;;6.30;2.97;;;;;;;11.32;83.33;101507.06;4998656;28;20213;-71
2023/10/05 05:51:10;;;;;;;5.03;2.87;;;;;;;11.35;83.45;101509.91;4998771;28;22117;-71
2023/10/05 05:53:37;;;;;;;5.80;2.93;;;;;;;11.41;84.07;101515.81;4997959;28;20210;-70
2023/10/05 05:56:04;;;;;;;8.13;3.30;;;;;;;11.45;82.82;101506.19;4996611;28;20226;-71
2023/10/05 05:58:30;;;;;;;8.80;3.87;;;;;;;11.48;83.36;101510.84;5001569;28;20218;-71
2023/10/05 06:00:57;;;;;;;7.63;3.47;;;;;;;11.53;83.38;101514.13;4996705;28;20903;-72
2023/10/05 06:03:24;;;;;;;5.27;3.40;;;;;;;11.58;82.87;101510.56;4995476;28;20224;-71
2023/10/05 06:05:51;;;;;;;6.33;2.97;;;;;;;11.62;82.22;101507.03;5006468;28;20433;-71
2023/10/05 06:08:19;;;;;;;5.13;2.87;;;;;;;11.67;82.67;101512.16;4999179;28;23271;-71
2023/10/05 06:10:46;;;;;;;5.30;2.60;;;;;;;11.70;83.15;101508.88;4996266;28;20212;-71
2023/10/05 06:13:13;;;;;;;7.77;3.43;;;;;;;11.76;81.54;101501.59;4997455;28;20227;-71
2023/10/05 06:15:39;;;;;;;5.47;3.00;;;;;;;11.79;82.23;101506.25;5003998;28;20340;-71
2023/10/05 06:18:07;;;;;;;5.67;3.20;;;;;;;11.83;82.02;101518.56;5000535;28;20208;-71
2023/10/05 06:20:33;;;;;;;5.57;2.87;;;;;;;11.87;81.92;101506.28;4983716;28;20877;-71
2023/10/05 06:23:00;;;;;;;5.20;3.10;;;;;;;11.92;82.07;101505.34;5009817;28;20225;-70
2023/10/05 06:25:27;;;;;;;4.60;2.93;;;;;;;11.96;82.04;101503.63;5006149;28;20232;-71
2023/10/05 06:27:54;;;;;;;4.90;2.97;;;;;;;11.99;82.04;101498.47;5004271;28;20212;-70
2023/10/05 06:30:21;;;;;;;9.27;3.50;;;;;;;12.06;81.13;101504.06;5001051;28;20254;-71
2023/10/05 06:32:48;;;;;;;5.87;2.90;;;;;;;12.12;82.09;101500.16;4998329;28;20347;-71
2023/10/05 06:35:14;;;;;;;4.93;2.80;;;;;;;12.16;81.85;101503.00;4996189;28;21370;-71
2023/10/05 06:37:42;;;;;;;7.10;3.40;;;;;;;12.21;81.04;101492.25;4996873;28;20215;-71
2023/10/05 06:40:12;;;;;;;4.90;2.90;;;;;;;12.27;81.02;101496.28;5001217;28;20240;-71
2023/10/05 06:42:41;;;;;;;6.57;2.77;;;;;;;12.31;79.76;101503.28;5007362;28;20212;-71
2023/10/05 06:45:09;;;;;;;5.90;3.10;;;;;;;12.37;80.70;101502.00;5002256;28;20234;-71
2023/10/05 06:47:36;;;;;;;7.27;2.97;;;;;;;12.41;79.42;101500.28;4998253;28;21248;-71
2023/10/05 06:50:08;;;;;;;4.83;2.80;;;;;;;12.47;80.11;101503.56;4997445;28;20319;-71
2023/10/05 06:52:36;;;;;;;5.67;3.03;;;;;;;12.50;79.09;101501.06;5000708;28;20691;-71
2023/10/05 06:55:07;;;;;;;6.60;2.90;;;;;;;12.56;80.42;101496.34;4996198;28;20238;-70
2023/10/05 06:57:35;;;;;;;7.17;2.80;;;;;;;12.58;79.70;101494.94;4993175;28;20222;-72
2023/10/05 07:00:11;;;;;;;6.57;2.77;;;;;;;12.63;79.93;101508.03;4995074;28;20209;-71
2023/10/05 07:02:37;;;;;;;8.23;2.73;;;;;;;12.68;78.78;101507.09;4994959;28;20844;-71
2023/10/05 07:05:05;;;;;;;4.90;2.43;;;;;;;12.71;78.92;101506.44;4989128;28;21895;-71
2023/10/05 07:07:32;;;;;;;7.80;2.67;;;;;;;12.74;78.20;101496.00;5001318;28;20237;-71
2023/10/05 07:09:58;;;;;;;5.13;2.90;;;;;;;12.79;79.09;101490.50;4997618;28;20584;-70
2023/10/05 07:12:25;;;;;;;8.37;3.07;;;;;;;12.84;80.10;101495.63;4995546;28;20218;-71
2023/10/05 07:14:51;;;;;;;6.53;2.70;;;;;;;12.89;78.82;101495.47;4998364;28;20961;-71
2023/10/05 07:17:19;;;;;;;6.07;2.80;;;;;;;12.92;80.30;101502.78;4997609;28;20220;-71
2023/10/05 07:19:49;;;;;;;7.60;2.90;;;;;;;12.98;78.36;101490.16;4999223;28;20216;-71
2023/10/05 07:22:16;;;;;;;5.80;2.63;;;;;;;13.05;78.24;101498.41;5001362;28;20306;-71
2023/10/05 07:24:42;;;;;;;6.40;3.03;;;;;;;13.11;77.15;101489.16;4997830;28;20951;-71
2023/10/05 07:27:08;;;;;;;5.43;2.50;;;;;;;13.18;77.61;101495.53;5001483;28;20206;-71
2023/10/05 07:29:36;;;;;;;4.50;2.50;;;;;;;13.25;76.89;101489.72;4998408;28;20629;-71
2023/10/05 07:32:05;;;;;;;6.07;3.30;;;;;;;13.35;77.91;101497.31;5005899;28;20246;-71
2023/10/05 07:34:34;;;;;;;4.97;2.57;;;;;;;13.47;76.98;101500.03;5004723;28;20373;-71
2023/10/05 07:37:01;;;;;;;5.40;2.30;;;;;;;13.56;76.06;101506.09;5000073;28;20204;-71
2023/10/05 07:39:28;;;;;;;4.00;2.13;;;;;;;13.66;75.86;101509.13;5001745;28;20348;-71
2023/10/05 07:41:55;;;;;;;5.07;2.90;;;;;;;13.74;76.81;101515.47;5006662;28;20206;-72
2023/10/05 07:44:21;;;;;;;4.43;2.57;;;;;;;13.82;74.73;101506.69;5002727;28;20253;-71
2023/10/05 07:46:47;;;;;;;5.50;2.70;;;;;;;13.90;74.61;101509.25;5003537;28;20388;-72
2023/10/05 07:49:14;;;;;;;7.57;3.00;;;;;;;13.97;75.24;101512.16;4998379;28;21744;-72
2023/10/05 07:51:41;;;;;;;10.13;3.20;;;;;;;14.08;75.38;101515.97;4997327;28;20896;-72
2023/10/05 07:54:09;;;;;;;4.43;2.40;;;;;;;14.20;74.29;101513.41;5003191;28;20242;-72
2023/10/05 07:56:35;;;;;;;5.73;2.27;;;;;;;14.33;73.31;101516.88;5000001;28;20285;-71
2023/10/05 07:59:03;;;;;;;4.87;2.60;;;;;;;14.40;74.17;101523.22;5005100;28;20207;-71
2023/10/05 08:01:30;;;;;;;6.13;2.47;;;;;;;14.49;73.35;101523.13;4999864;28;20295;-72
2023/10/05 08:03:57;;;;;;;5.40;2.57;;;;;;;14.54;71.99;101529.00;5001751;28;20849;-72
2023/10/05 08:06:25;;;;;;;6.03;2.67;;;;;;;14.61;72.85;101526.59;4999917;28;20567;-72
2023/10/05 08:08:53;;;;;;;4.33;2.40;;;;;;;14.67;71.92;101533.25;4982861;28;20639;-71
2023/10/05 08:11:20;;;;;;;5.50;2.93;;;;;;;14.75;73.14;101531.63;5000600;28;20559;-71
2023/10/05 08:13:47;;;;;;;7.40;2.70;;;;;;;14.78;71.35;101523.75;5002197;28;20805;-71
2023/10/05 08:16:13;;;;;;;6.93;2.40;;;;;;;14.87;71.89;101527.09;4999851;28;20211;-71
2023/10/05 08:18:41;;;;;;;5.80;2.70;;;;;;;14.96;72.52;101532.31;5002465;28;20343;-72
2023/10/05 08:21:08;;;;;;;5.53;2.33;;;;;;;15.01;72.59;101532.84;5002986;28;20225;-71
2023/10/05 08:23:34;;;;;;;3.87;1.90;;;;;;;15.04;71.05;101534.06;4994947;28;20850;-72
2023/10/05 08:26:04;;;;;;;4.60;2.27;;;;;;;15.08;71.25;101540.28;4999914;28;20234;-72
2023/10/05 08:28:31;;;;;;;5.10;2.53;;;;;;;15.11;70.62;101540.41;4997465;28;20211;-72
2023/10/05 08:31:05;;;;;;;4.57;2.37;;;;;;;15.15;70.55;101545.81;4996348;28;20567;-71
2023/10/05 08:33:33;;;;;;;4.80;2.20;;;;;;;15.16;70.68;101547.41;4999058;28;20224;-71
2023/10/05 08:36:00;;;;;;;5.70;2.67;;;;;;;15.18;71.86;101545.97;5001068;28;20206;-71
2023/10/05 08:38:27;;;;;;;4.43;1.97;;;;;;;15.23;71.78;101547.59;4997505;28;21986;-72
2023/10/05 08:40:54;;;;;;;4.53;2.13;;;;;;;15.26;70.75;101541.63;5004269;28;20217;-72
2023/10/05 08:43:21;;;;;;;4.03;2.20;;;;;;;15.28;69.52;101545.53;4998604;28;20757;-71
2023/10/05 08:45:51;;;;;;;4.87;2.30;;;;;;;15.31;70.00;101547.50;5003389;28;20341;-71
2023/10/05 08:48:28;;;;;;;6.60;2.33;;;;;;;15.35;72.49;101551.06;5000172;28;20287;-71
2023/10/05 08:50:56;;;;;;;4.47;2.37;;;;;;;15.41;69.80;101552.41;5000888;28;20717;-71
2023/10/05 08:53:23;;;;;;;5.43;2.30;;;;;;;15.45;69.95;101545.31;4996414;28;20214;-71
2023/10/05 08:55:51;;;;;;;5.87;2.40;;;;;;;15.49;70.91;101548.84;4992330;28;20233;-72
2023/10/05 08:58:19;;;;;;;4.70;2.33;;;;;;;15.55;70.38;101555.50;5000671;28;20355;-71
2023/10/05 09:00:48;;;;;;;4.67;2.10;;;;;;;15.59;70.14;101552.94;4997561;28;20724;-70
2023/10/05 09:06:20;;;;;;;3.80;2.10;;;;;;;15.71;69.54;101556.38;5043152;27;1174242;-72
2023/10/05 09:08:53;;;;;;;5.23;1.73;;;;;;;15.74;69.35;101549.59;5062810;28;20219;-72
2023/10/05 09:11:22;;;;;;;4.23;2.00;;;;;;;15.79;68.54;101552.03;5060755;28;20213;-72
2023/10/05 09:13:49;;;;;;;5.57;2.30;;;;;;;15.82;67.96;101540.69;5056715;28;21056;-72
2023/10/05 09:16:22;;;;;;;4.90;2.33;;;;;;;15.81;66.95;101542.59;5051536;28;20295;-72
2023/10/05 09:18:49;;;;;;;4.33;2.27;;;;;;;15.86;67.97;101541.56;5054939;28;20219;-72
2023/10/05 09:21:19;;;;;;;9.13;2.20;;;;;;;15.91;66.07;101536.78;5051686;28;20835;-71
2023/10/05 09:23:46;;;;;;;4.60;1.90;;;;;;;15.97;66.63;101539.97;5049907;28;20207;-72
2023/10/05 09:26:33;;;;;;;4.13;1.87;;;;;;;16.02;66.72;101542.41;5054630;28;20314;-72
2023/10/05 09:29:20;;;;;;;3.43;2.17;;;;;;;16.04;66.55;101537.53;5052990;28;20315;-71
2023/10/05 09:31:50;;;;;;;5.57;2.27;;;;;;;16.07;67.54;101558.94;5053166;28;20826;-72
2023/10/05 09:34:17;;;;;;;4.53;2.20;;;;;;;16.07;66.23;101542.94;5050362;28;20232;-69
2023/10/05 09:36:45;;;;;;;4.13;2.30;;;;;;;16.12;66.61;101542.72;5049356;28;20955;-71
2023/10/05 09:39:15;;;;;;;3.07;1.83;;;;;;;16.16;65.88;101532.16;5036338;28;21182;-71
2023/10/05 09:41:42;;;;;;;4.63;2.20;;;;;;;16.19;64.99;101542.91;5035847;28;20220;-71
2023/10/05 09:44:15;;;;;;;4.93;2.10;;;;;;;16.30;65.48;101546.63;5056140;28;20232;-71
2023/10/05 09:46:43;;;;;;;4.87;2.30;;;;;;;16.42;65.45;101557.28;5054444;28;20212;-71
2023/10/05 09:49:14;;;;;;;4.97;2.23;;;;;;;16.50;67.19;101539.59;5053893;28;20564;-71
2023/10/05 09:51:43;;;;;;;3.90;2.40;;;;;;;16.58;65.18;101541.31;5025835;28;21479;-71
2023/10/05 09:54:11;;;;;;;5.97;2.10;;;;;;;16.66;63.92;101553.72;5042132;28;20232;-70
2023/10/05 09:56:41;;;;;;;5.70;2.40;;;;;;;16.73;68.41;101549.34;5032103;28;20290;-70
2023/10/05 09:59:15;;;;;;;5.50;2.03;;;;;;;16.84;65.38;101549.59;5023428;28;20212;-71
2023/10/05 10:01:43;;;;;;;3.73;2.20;;;;;;;17.00;64.51;101547.69;5036608;28;20951;-70
2023/10/05 10:04:10;;;;;;;3.97;2.40;;;;;;;17.07;64.08;101545.97;5039483;28;20229;-71
2023/10/05 10:06:37;;;;;;;3.03;1.70;;;;;;;17.13;63.24;101541.16;5038363;28;20205;-71
2023/10/05 10:09:09;;;;;;;7.67;2.60;;;;;;;17.24;63.55;101544.84;5045728;28;20212;-71
2023/10/05 10:11:37;;;;;;;3.63;1.80;;;;;;;17.33;63.88;101548.13;5039517;28;20225;-71
2023/10/05 10:14:06;;;;;;;4.73;2.00;;;;;;;17.38;61.95;101547.84;5043416;28;21222;-71
2023/10/05 10:16:33;;;;;;;5.43;2.17;;;;;;;17.39;62.85;101570.78;5023088;28;21179;-70
2023/10/05 10:19:06;;;;;;;6.13;2.17;;;;;;;17.39;62.31;101555.53;5020613;28;20217;-71
2023/10/05 10:21:35;;;;;;;7.20;2.27;;;;;;;17.51;62.68;101560.00;5022026;28;20209;-71
2023/10/05 10:24:03;;;;;;;4.33;2.23;;;;;;;17.56;62.97;101554.38;5004004;28;20230;-70
2023/10/05 10:26:31;;;;;;;4.73;1.50;;;;;;;17.57;61.49;101550.59;5024304;28;21249;-70
2023/10/05 10:28:59;;;;;;;3.87;1.43;;;;;;;17.65;62.46;101542.38;5024596;28;20205;-71
2023/10/05 10:31:30;;;;;;;5.10;2.20;;;;;;;17.71;61.16;101545.56;5025751;28;20210;-70
2023/10/05 10:34:05;;;;;;;4.03;2.00;;;;;;;17.71;60.87;101551.69;5025639;28;20322;-71
2023/10/05 10:36:51;;;;;;;5.83;1.80;;;;;;;17.72;59.98;101541.75;5019099;28;20202;-71
2023/10/05 10:39:24;;;;;;;7.43;2.00;;;;;;;17.80;61.61;101554.16;5018837;28;20214;-70
2023/10/05 10:41:56;;;;;;;3.87;1.83;;;;;;;17.85;61.63;101559.22;5018380;28;20209;-71
2023/10/05 10:44:24;;;;;;;4.07;1.67;;;;;;;17.90;61.19;101557.03;5025193;28;20985;-71
2023/10/05 10:46:54;;;;;;;4.83;2.00;;;;;;;17.97;60.88;101549.19;5019647;28;20207;-71
2023/10/05 10:49:21;;;;;;;3.10;1.90;;;;;;;18.05;60.80;101552.78;5022882;28;20202;-70
2023/10/05 10:51:47;;;;;;;3.83;1.60;;;;;;;18.05;59.22;101545.50;5017268;28;20327;-71
2023/10/05 10:54:19;;;;;;;3.07;1.77;;;;;;;18.07;60.67;101553.19;5025277;28;20240;-71
2023/10/05 10:56:45;;;;;;;6.13;2.03;;;;;;;18.02;59.92;101542.78;5022182;28;20246;-70
2023/10/05 10:59:13;;;;;;;4.60;1.80;;;;;;;18.01;59.65;101539.31;5028542;28;20221;-70
2023/10/05 11:01:44;;;;;;;3.43;1.67;;;;;;;18.06;62.21;101533.69;5022214;28;20209;-71
2023/10/05 11:04:25;;;;;;;3.97;2.13;;;;;;;18.07;60.14;101537.91;5024592;28;20236;-70
2023/10/05 11:06:59;;;;;;;4.53;1.63;;;;;;;18.08;59.90;101536.03;5009355;28;20210;-71
2023/10/05 11:09:35;;;;;;;5.03;2.00;;;;;;;18.18;62.76;101540.81;5015306;28;20858;-70
2023/10/05 11:12:10;;;;;;;4.63;1.70;;;;;;;18.25;59.54;101536.38;5037359;28;20220;-70
2023/10/05 11:14:38;;;;;;;3.77;1.47;;;;;;;18.41;60.78;101529.06;5032502;28;20237;-71
2023/10/05 11:17:12;;;;;;;4.53;1.80;;;;;;;18.57;58.55;101527.03;5036193;28;20229;-71
2023/10/05 11:19:40;;;;;;;2.83;1.70;;;;;;;18.70;59.87;101528.44;5035450;28;20391;-71
2023/10/05 11:22:11;;;;;;;2.47;1.43;;;;;;;18.75;58.31;101536.16;5033267;28;20877;-71
2023/10/05 11:25:00;;;;;;;5.37;1.70;;;;;;;18.83;57.32;101540.50;5035755;28;20221;-71
2023/10/05 11:27:26;;;;;;;6.13;1.60;;;;;;;18.89;57.67;101539.06;5034088;28;20205;-71
2023/10/05 11:29:55;;;;;;;3.20;1.40;;;;;;;18.91;56.94;101536.81;5037057;28;20211;-70
2023/10/05 11:32:25;;;;;;;4.47;1.90;;;;;;;18.96;59.32;101530.38;5034977;28;20210;-71
2023/10/05 11:34:55;;;;;;;3.37;1.40;;;;;;;18.90;55.12;101537.16;5036033;28;20308;-70
2023/10/05 11:37:25;;;;;;;3.03;1.80;;;;;;;18.94;59.43;101538.00;5037423;28;20209;-71